Qway, New Mexico
Current Conditions -  °F | °C
As of 4:53 AM on Sunday 23 Nov 2014 (Local Time) from KTCC Reporting Station
NA  
Wind Chill: 41°   Ceiling: NA
Heat Index: 48°   Visibility: 10mi
Dew Point: 20°   Wind: 21mph
Humidity: 33%   Direction: 250°WSW
Pressure: 29.58"   Gusts: NA
Location:  34.9519°N, 103.772°W
Report Text: KTCC 231153Z AUTO 25018KT 10SM 09/M07 A2958 RMK AO2 SLP982 7//// T00891067 10133 20072 57006
Loading
Personal Weather Stations






























Interactive Weather Map New forecast layout! Learn more

10-Day Weather Forecast

Advertisements
Track Severe Weather on mobile